createdAt,value
2022-11-17T00:00:59.110Z,8.07
2022-11-17T00:03:25.465Z,8.07
2022-11-17T00:05:52.107Z,7.85
2022-11-17T00:08:18.726Z,7.63
2022-11-17T00:10:45.071Z,8.13
2022-11-17T00:13:11.446Z,7.97
2022-11-17T00:15:37.885Z,7.75
2022-11-17T00:18:04.372Z,7.95
2022-11-17T00:20:30.769Z,7.70
2022-11-17T00:22:57.230Z,7.60
2022-11-17T00:25:23.592Z,7.57
2022-11-17T00:27:50.035Z,8.20
2022-11-17T00:30:16.419Z,8.05
2022-11-17T00:32:42.867Z,7.45
2022-11-17T00:35:09.237Z,7.78
2022-11-17T00:37:35.567Z,8.32
2022-11-17T00:40:01.980Z,7.72
2022-11-17T00:42:28.291Z,7.80
2022-11-17T00:44:54.790Z,7.28
2022-11-17T00:47:21.279Z,7.47
2022-11-17T00:49:47.746Z,8.55
2022-11-17T00:52:14.054Z,7.50
2022-11-17T00:54:40.475Z,7.93
2022-11-17T00:57:06.915Z,7.88
2022-11-17T00:59:33.241Z,7.82
2022-11-17T01:01:59.618Z,7.80
2022-11-17T01:04:26.068Z,8.15
2022-11-17T01:06:52.674Z,7.85
2022-11-17T01:09:19.148Z,7.68
2022-11-17T01:11:45.529Z,8.32
2022-11-17T01:14:11.992Z,7.68
2022-11-17T01:16:38.346Z,7.95
2022-11-17T01:19:04.722Z,7.72
2022-11-17T01:21:31.082Z,7.63
2022-11-17T01:23:57.408Z,7.72
2022-11-17T01:26:23.733Z,7.82
2022-11-17T01:28:50.086Z,7.35
2022-11-17T01:31:16.498Z,7.90
2022-11-17T01:33:43.133Z,7.32
2022-11-17T01:36:09.563Z,7.82
2022-11-17T01:38:36.081Z,8.00
2022-11-17T01:41:02.486Z,7.70
2022-11-17T01:43:29.128Z,8.45
2022-11-17T01:45:55.523Z,8.13
2022-11-17T01:48:21.889Z,7.88
2022-11-17T01:50:48.221Z,8.23
2022-11-17T01:53:14.558Z,7.55
2022-11-17T01:55:40.951Z,8.35
2022-11-17T01:58:07.418Z,7.60
2022-11-17T02:00:34.014Z,8.38
2022-11-17T02:03:01.387Z,8.07
2022-11-17T02:05:28.116Z,8.02
2022-11-17T02:07:54.649Z,7.88
2022-11-17T02:10:21.293Z,8.00
2022-11-17T02:12:47.943Z,8.50
2022-11-17T02:15:14.411Z,8.48
2022-11-17T02:17:41.209Z,8.27
2022-11-17T02:20:07.598Z,8.65
2022-11-17T02:22:34.284Z,8.10
2022-11-17T02:25:00.718Z,7.80
2022-11-17T02:27:27.273Z,7.97
2022-11-17T02:29:53.874Z,8.98
2022-11-17T02:32:20.197Z,9.20
2022-11-17T02:34:46.571Z,8.70
2022-11-17T02:37:13.165Z,8.52
2022-11-17T02:39:39.589Z,8.63
2022-11-17T02:42:05.958Z,8.80
2022-11-17T02:44:32.376Z,8.90
2022-11-17T02:46:58.745Z,8.57
2022-11-17T02:49:25.293Z,8.15
2022-11-17T02:51:51.674Z,8.80
2022-11-17T02:54:18.022Z,8.88
2022-11-17T02:56:44.385Z,9.00
2022-11-17T02:59:10.796Z,8.75
2022-11-17T03:01:37.265Z,8.82
2022-11-17T03:04:03.607Z,7.85
2022-11-17T03:06:29.976Z,8.85
2022-11-17T03:08:56.322Z,8.90
2022-11-17T03:11:22.712Z,8.23
2022-11-17T03:13:49.148Z,7.97
2022-11-17T03:16:15.656Z,9.23
2022-11-17T03:18:42.029Z,9.02
2022-11-17T03:21:08.456Z,9.45
2022-11-17T03:23:35.063Z,9.63
2022-11-17T03:26:01.621Z,8.85
2022-11-17T03:28:28.003Z,9.05
2022-11-17T03:30:54.364Z,9.68
2022-11-17T03:33:20.916Z,9.13
2022-11-17T03:35:50.658Z,9.00
2022-11-17T03:38:17.241Z,9.10
2022-11-17T03:40:43.631Z,8.88
2022-11-17T03:43:10.031Z,9.30
2022-11-17T03:45:36.417Z,9.05
2022-11-17T03:48:02.795Z,8.55
2022-11-17T03:50:29.189Z,8.93
2022-11-17T03:52:55.550Z,8.63
2022-11-17T03:55:22.002Z,9.15
2022-11-17T03:57:48.444Z,9.55
2022-11-17T04:00:15.021Z,9.43
2022-11-17T04:02:41.384Z,8.50
2022-11-17T04:05:07.782Z,9.55
2022-11-17T04:07:34.257Z,9.38
2022-11-17T04:10:00.707Z,9.30
2022-11-17T04:12:27.214Z,9.23
2022-11-17T04:14:53.583Z,9.20
2022-11-17T04:17:20.605Z,8.85
2022-11-17T04:19:47.104Z,9.05
2022-11-17T04:22:13.443Z,9.43
2022-11-17T04:24:39.777Z,8.90
2022-11-17T04:27:06.219Z,9.60
2022-11-17T04:29:32.546Z,9.80
2022-11-17T04:31:58.962Z,10.07
2022-11-17T04:34:25.469Z,9.38
2022-11-17T04:36:51.916Z,9.13
2022-11-17T04:39:18.340Z,9.52
2022-11-17T04:41:44.858Z,8.90
2022-11-17T04:44:11.323Z,9.75
2022-11-17T04:46:37.707Z,9.63
2022-11-17T04:49:04.052Z,10.02
2022-11-17T04:51:30.406Z,9.68
2022-11-17T04:53:56.759Z,9.80
2022-11-17T04:56:23.148Z,8.88
2022-11-17T04:58:49.524Z,9.52
2022-11-17T05:01:16.034Z,9.05
2022-11-17T05:03:42.410Z,9.38
2022-11-17T05:06:08.862Z,9.70
2022-11-17T05:08:35.254Z,9.07
2022-11-17T05:11:01.861Z,9.10
2022-11-17T05:13:28.594Z,9.60
2022-11-17T05:15:54.981Z,9.18
2022-11-17T05:18:21.343Z,9.80
2022-11-17T05:20:47.864Z,9.40
2022-11-17T05:23:14.160Z,8.85
2022-11-17T05:25:40.503Z,9.27
2022-11-17T05:28:06.919Z,9.40
2022-11-17T05:30:33.298Z,9.63
2022-11-17T05:32:59.743Z,9.25
2022-11-17T05:35:26.153Z,9.45
2022-11-17T05:37:52.542Z,9.52
2022-11-17T05:40:18.934Z,9.15
2022-11-17T05:42:45.254Z,9.07
2022-11-17T05:45:11.719Z,9.80
2022-11-17T05:47:38.087Z,9.00
2022-11-17T05:50:04.451Z,9.23
2022-11-17T05:52:30.779Z,8.93
2022-11-17T05:54:57.153Z,8.63
2022-11-17T05:57:23.685Z,9.10
2022-11-17T05:59:50.037Z,9.13
2022-11-17T06:02:16.447Z,9.45
2022-11-17T06:04:43.076Z,9.27
2022-11-17T06:07:09.623Z,9.40
2022-11-17T06:09:36.085Z,9.57
2022-11-17T06:12:05.909Z,9.50
2022-11-17T06:14:33.049Z,8.43
2022-11-17T06:16:59.453Z,9.10
2022-11-17T06:19:26.424Z,8.82
2022-11-17T06:22:10.972Z,9.48
2022-11-17T06:24:38.974Z,9.85
2022-11-17T06:27:05.394Z,9.45
2022-11-17T06:29:31.873Z,9.50
2022-11-17T06:31:58.307Z,8.55
2022-11-17T06:34:24.706Z,9.75
2022-11-17T06:36:51.162Z,9.55
2022-11-17T06:39:18.045Z,9.80
2022-11-17T06:41:44.574Z,9.52
2022-11-17T06:44:11.004Z,8.77
2022-11-17T06:46:37.490Z,8.48
2022-11-17T06:49:04.174Z,9.13
2022-11-17T06:51:30.566Z,9.13
2022-11-17T06:53:59.099Z,8.90
2022-11-17T06:56:25.728Z,9.75
2022-11-17T06:58:52.160Z,9.52
2022-11-17T07:01:18.625Z,9.15
2022-11-17T07:03:45.174Z,8.73
2022-11-17T07:06:11.737Z,9.55
2022-11-17T07:08:38.484Z,10.30
2022-11-17T07:11:05.382Z,9.40
2022-11-17T07:13:32.206Z,10.65
2022-11-17T07:15:58.677Z,10.05
2022-11-17T07:18:25.306Z,9.65
2022-11-17T07:20:51.669Z,9.48
2022-11-17T07:23:18.143Z,10.98
2022-11-17T07:25:44.518Z,9.63
2022-11-17T07:28:11.498Z,10.15
2022-11-17T07:30:37.984Z,9.57
2022-11-17T07:33:04.402Z,10.70
2022-11-17T07:35:30.721Z,10.50
2022-11-17T07:37:57.157Z,10.57
2022-11-17T07:40:23.640Z,10.50
2022-11-17T07:42:50.224Z,10.65
2022-11-17T07:45:16.563Z,10.38
2022-11-17T07:47:43.042Z,10.77
2022-11-17T07:50:09.353Z,10.50
2022-11-17T07:52:41.149Z,11.00
2022-11-17T07:55:08.018Z,11.18
2022-11-17T07:57:34.406Z,10.55
2022-11-17T08:00:00.949Z,10.05
2022-11-17T08:02:27.410Z,11.63
2022-11-17T08:04:53.825Z,10.75
2022-11-17T08:07:20.188Z,11.38
2022-11-17T08:09:46.544Z,11.48
2022-11-17T08:12:12.894Z,10.88
2022-11-17T08:14:39.345Z,11.23
2022-11-17T08:17:05.664Z,10.88
2022-11-17T08:19:32.102Z,10.93
2022-11-17T08:21:58.489Z,11.13
2022-11-17T08:24:25.020Z,11.00
2022-11-17T08:26:51.654Z,11.57
2022-11-17T08:29:18.347Z,12.13
2022-11-17T08:31:44.755Z,11.10
2022-11-17T08:34:11.102Z,11.38
2022-11-17T08:36:37.501Z,11.75
2022-11-17T08:39:03.821Z,11.57
2022-11-17T08:41:30.204Z,12.18
2022-11-17T08:43:56.617Z,12.05
2022-11-17T08:46:23.283Z,11.68
2022-11-17T08:48:55.512Z,12.48
2022-11-17T08:51:23.392Z,12.25
2022-11-17T08:53:49.844Z,12.25
2022-11-17T08:56:16.411Z,11.38
2022-11-17T08:58:43.035Z,12.52
2022-11-17T09:01:09.532Z,12.90
2022-11-17T09:03:35.895Z,12.98
2022-11-17T09:06:02.628Z,12.77
2022-11-17T09:08:45.072Z,12.45
2022-11-17T09:11:12.350Z,12.50
2022-11-17T09:13:38.881Z,13.35
2022-11-17T09:16:05.276Z,12.70
2022-11-17T09:18:31.623Z,13.38
2022-11-17T09:20:58.545Z,13.75
2022-11-17T09:23:25.096Z,14.10
2022-11-17T09:25:51.717Z,13.32
2022-11-17T09:28:18.192Z,14.65
2022-11-17T09:30:44.660Z,14.93
2022-11-17T09:33:11.272Z,15.80
2022-11-17T09:35:37.653Z,14.65
2022-11-17T09:38:04.265Z,15.48
2022-11-17T09:40:36.357Z,15.43
2022-11-17T09:43:04.327Z,15.05
2022-11-17T09:45:30.711Z,15.95
2022-11-17T09:48:07.264Z,15.65
2022-11-17T09:50:43.504Z,15.68
2022-11-17T09:53:09.870Z,15.30
2022-11-17T09:55:36.573Z,15.50
2022-11-17T09:58:03.593Z,15.68
2022-11-17T10:00:29.882Z,16.70
2022-11-17T10:02:56.287Z,16.33
2022-11-17T10:05:22.635Z,15.88
2022-11-17T10:07:49.094Z,15.30
2022-11-17T10:10:15.562Z,15.07
2022-11-17T10:12:42.024Z,16.98
2022-11-17T10:15:08.386Z,15.10
2022-11-17T10:17:34.749Z,15.43
2022-11-17T10:20:01.166Z,15.60
2022-11-17T10:22:27.571Z,14.90
2022-11-17T10:24:53.948Z,16.23
2022-11-17T10:27:20.281Z,15.43
2022-11-17T10:29:46.594Z,15.55
2022-11-17T10:32:12.928Z,15.95
2022-11-17T10:34:41.605Z,14.60
2022-11-17T10:37:08.221Z,15.07
2022-11-17T10:39:34.668Z,15.85
2022-11-17T10:42:01.163Z,15.02
2022-11-17T10:44:27.610Z,14.93
2022-11-17T10:46:58.911Z,15.40
2022-11-17T10:49:28.191Z,16.10
2022-11-17T10:51:54.528Z,16.38
2022-11-17T10:54:20.980Z,14.50
2022-11-17T10:56:47.346Z,15.35
2022-11-17T10:59:13.788Z,15.27
2022-11-17T11:01:40.158Z,15.43
2022-11-17T11:04:06.500Z,14.77
2022-11-17T11:06:32.940Z,15.93
2022-11-17T11:08:59.307Z,15.27
2022-11-17T11:11:25.697Z,15.10
2022-11-17T11:13:52.045Z,13.30
2022-11-17T11:16:18.539Z,14.68
2022-11-17T11:18:44.958Z,14.32
2022-11-17T11:21:11.510Z,14.00
2022-11-17T11:23:37.876Z,14.75
2022-11-17T11:26:04.294Z,15.45
2022-11-17T11:28:30.738Z,15.15
2022-11-17T11:30:57.129Z,14.15
2022-11-17T11:33:23.499Z,13.85
2022-11-17T11:35:49.878Z,13.95
2022-11-17T11:38:16.404Z,14.18
2022-11-17T11:40:42.801Z,13.85
2022-11-17T11:43:09.281Z,13.05
2022-11-17T11:45:35.696Z,13.88
2022-11-17T11:48:01.988Z,13.60
2022-11-17T11:50:28.358Z,12.90
2022-11-17T11:52:54.736Z,13.55
2022-11-17T11:55:21.018Z,13.65
2022-11-17T11:57:47.434Z,13.73
2022-11-17T12:00:13.890Z,13.73
2022-11-17T12:02:42.663Z,13.73
2022-11-17T12:05:09.347Z,12.40
2022-11-17T12:07:35.666Z,12.90
2022-11-17T12:10:01.996Z,13.45
2022-11-17T12:12:28.608Z,12.68
2022-11-17T12:14:54.997Z,13.63
2022-11-17T12:17:21.575Z,12.30
2022-11-17T12:19:48.056Z,13.13
2022-11-17T12:22:14.489Z,13.07
2022-11-17T12:24:40.898Z,12.60
2022-11-17T12:27:07.597Z,12.98
2022-11-17T12:29:34.089Z,12.18
2022-11-17T12:32:00.437Z,12.55
2022-11-17T12:34:26.899Z,11.85
2022-11-17T12:36:53.469Z,13.60
2022-11-17T12:39:19.825Z,12.13
2022-11-17T12:41:46.100Z,11.48
2022-11-17T12:44:12.786Z,12.45
2022-11-17T12:46:39.322Z,12.50
2022-11-17T12:49:05.827Z,11.68
2022-11-17T12:51:32.215Z,12.35
2022-11-17T12:53:58.640Z,11.70
2022-11-17T12:56:25.290Z,12.25
2022-11-17T12:58:51.690Z,10.52
2022-11-17T13:01:18.240Z,11.20
2022-11-17T13:03:44.719Z,12.13
2022-11-17T13:06:36.955Z,12.00
2022-11-17T13:08:57.824Z,11.25
2022-11-17T13:11:24.116Z,10.80
2022-11-17T13:13:50.443Z,11.30
2022-11-17T13:16:16.902Z,11.82
2022-11-17T13:18:43.415Z,10.70
2022-11-17T13:21:09.791Z,10.70
2022-11-17T13:23:36.320Z,10.30
2022-11-17T13:26:02.642Z,10.27
2022-11-17T13:28:28.961Z,11.07
2022-11-17T13:30:55.295Z,11.27
2022-11-17T13:33:21.645Z,11.43
2022-11-17T13:35:47.962Z,10.75
2022-11-17T13:38:14.417Z,11.13
2022-11-17T13:40:40.824Z,11.45
2022-11-17T13:43:07.405Z,11.10
2022-11-17T13:45:33.802Z,11.02
2022-11-17T13:48:00.268Z,10.88
2022-11-17T13:50:26.786Z,10.55
2022-11-17T13:52:53.130Z,10.07
2022-11-17T13:55:19.441Z,10.10
2022-11-17T13:57:45.758Z,10.23
2022-11-17T14:00:12.105Z,10.35
2022-11-17T14:02:38.601Z,10.07
2022-11-17T14:05:04.944Z,10.00
2022-11-17T14:07:31.366Z,10.13
2022-11-17T14:09:58.033Z,9.68
2022-11-17T14:12:24.395Z,9.98
2022-11-17T14:14:50.814Z,9.93
2022-11-17T14:17:17.207Z,10.18
2022-11-17T14:19:43.713Z,10.27
2022-11-17T14:22:10.824Z,9.82
2022-11-17T14:24:39.711Z,9.05
2022-11-17T14:27:06.048Z,10.10
2022-11-17T14:29:32.433Z,9.70
2022-11-17T14:31:59.003Z,9.55
2022-11-17T14:34:34.541Z,10.15
2022-11-17T14:37:00.987Z,10.05
2022-11-17T14:39:27.318Z,9.63
2022-11-17T14:41:53.626Z,10.07
2022-11-17T14:44:20.018Z,9.48
2022-11-17T14:46:46.385Z,9.60
2022-11-17T14:49:13.091Z,9.93
2022-11-17T14:51:39.621Z,9.85
2022-11-17T14:54:05.997Z,9.70
2022-11-17T14:56:32.518Z,9.57
2022-11-17T14:58:58.852Z,9.43
2022-11-17T15:01:25.195Z,9.30
2022-11-17T15:03:51.865Z,10.57
2022-11-17T15:06:20.361Z,10.30
2022-11-17T15:08:46.972Z,10.27
2022-11-17T15:11:13.415Z,11.13
2022-11-17T15:13:39.804Z,11.07
2022-11-17T15:16:06.227Z,10.82
2022-11-17T15:18:32.610Z,11.63
2022-11-17T15:20:59.029Z,12.32
2022-11-17T15:23:25.444Z,12.23
2022-11-17T15:25:51.779Z,13.45
2022-11-17T15:28:22.434Z,15.55
2022-11-17T15:30:49.561Z,16.23
2022-11-17T15:33:15.872Z,16.17
2022-11-17T15:35:42.402Z,15.30
2022-11-17T15:38:08.784Z,16.92
2022-11-17T15:40:35.217Z,17.30
2022-11-17T15:43:01.569Z,16.75
2022-11-17T15:45:28.203Z,16.13
2022-11-17T15:47:54.548Z,17.00
2022-11-17T15:50:21.170Z,16.98
2022-11-17T15:53:03.610Z,17.45
2022-11-17T15:55:31.826Z,17.08
2022-11-17T15:58:06.322Z,17.23
2022-11-17T16:00:33.967Z,16.40
2022-11-17T16:03:08.547Z,16.83
2022-11-17T16:05:37.130Z,16.67
2022-11-17T16:08:06.284Z,16.02
2022-11-17T16:10:36.004Z,16.23
2022-11-17T16:13:05.519Z,16.98
2022-11-17T16:15:36.335Z,15.30
2022-11-17T16:18:06.113Z,14.90
2022-11-17T16:20:32.635Z,15.00
2022-11-17T16:22:59.040Z,14.63
2022-11-17T16:31:15.122Z,14.85
2022-11-17T16:33:41.667Z,15.75
2022-11-17T16:36:08.173Z,16.20
2022-11-17T16:38:34.607Z,15.88
2022-11-17T16:41:01.041Z,17.20
2022-11-17T16:43:27.835Z,16.73
2022-11-17T16:45:54.247Z,16.38
2022-11-17T16:48:20.609Z,18.33
2022-11-17T16:50:47.042Z,17.60
2022-11-17T16:53:13.495Z,16.77
2022-11-17T16:55:39.889Z,16.92
2022-11-17T16:58:06.261Z,16.50
2022-11-17T17:00:32.734Z,16.77
2022-11-17T17:02:59.195Z,15.93
2022-11-17T17:05:25.565Z,16.30
2022-11-17T17:07:52.080Z,15.70
2022-11-17T17:10:18.575Z,16.60
2022-11-17T17:12:45.169Z,15.30
2022-11-17T17:15:11.642Z,15.75
2022-11-17T17:17:38.179Z,15.55
2022-11-17T17:20:04.796Z,15.02
2022-11-17T17:22:31.170Z,15.40
2022-11-17T17:24:57.488Z,15.15
2022-11-17T17:27:24.115Z,14.60
2022-11-17T17:29:50.676Z,14.65
2022-11-17T17:32:17.308Z,14.93
2022-11-17T17:34:43.942Z,14.75
2022-11-17T17:37:12.380Z,16.42
2022-11-17T17:39:38.888Z,124.47
2022-11-17T17:42:07.812Z,163.77
2022-11-17T17:44:34.221Z,139.65
2022-11-17T17:47:00.607Z,131.63
2022-11-17T17:49:26.969Z,179.93
2022-11-17T17:54:21.994Z,201.43
2022-11-17T17:56:48.364Z,193.48
2022-11-17T17:59:16.359Z,181.55
2022-11-17T18:01:43.103Z,177.55
2022-11-17T18:04:15.338Z,167.88
2022-11-17T18:06:42.673Z,163.93
2022-11-17T18:09:12.837Z,156.35
2022-11-17T18:11:39.177Z,144.73
2022-11-17T18:14:05.631Z,140.15
2022-11-17T18:16:31.968Z,141.70
2022-11-17T18:18:58.298Z,136.90
2022-11-17T18:21:27.167Z,165.73
2022-11-17T18:23:58.816Z,214.95
2022-11-17T18:26:25.161Z,244.10
2022-11-17T18:31:43.230Z,241.82
2022-11-17T18:34:09.566Z,238.77
2022-11-17T18:36:36.489Z,228.63
2022-11-17T18:39:05.378Z,216.30
2022-11-17T18:41:31.931Z,243.25
2022-11-17T18:43:58.488Z,296.13
2022-11-17T18:46:24.965Z,302.10
2022-11-17T18:48:51.389Z,304.33
2022-11-17T18:51:19.567Z,290.23
2022-11-17T18:53:46.958Z,273.05
2022-11-17T18:56:13.428Z,259.35
2022-11-17T18:58:39.820Z,256.70
2022-11-17T19:01:07.325Z,237.95
2022-11-17T19:03:33.726Z,232.00
2022-11-17T19:06:00.287Z,216.50
2022-11-17T19:08:26.857Z,206.40
2022-11-17T19:10:53.234Z,205.32
2022-11-17T19:13:19.818Z,194.57
2022-11-17T19:15:50.970Z,188.18
2022-11-17T19:18:17.355Z,176.57
2022-11-17T19:20:43.682Z,161.23
2022-11-17T19:23:10.038Z,152.00
2022-11-17T19:25:36.544Z,150.63
2022-11-17T19:28:02.963Z,146.88
2022-11-17T19:30:29.383Z,140.85
2022-11-17T19:32:55.771Z,211.68
2022-11-17T19:35:22.906Z,278.95
2022-11-17T19:37:50.541Z,295.48
2022-11-17T19:40:16.940Z,283.23
2022-11-17T19:42:43.509Z,268.15
2022-11-17T19:45:10.182Z,258.95
2022-11-17T19:50:20.912Z,244.52
2022-11-17T19:52:47.274Z,235.18
2022-11-17T19:55:15.882Z,229.20
2022-11-17T19:57:42.418Z,216.05
2022-11-17T20:00:10.001Z,211.32
2022-11-17T20:02:36.455Z,201.50
2022-11-17T20:05:06.626Z,194.43
2022-11-17T20:07:37.546Z,191.98
2022-11-17T20:10:04.009Z,182.27
2022-11-17T20:12:30.348Z,175.93
2022-11-17T20:14:56.869Z,175.38
2022-11-17T20:17:23.283Z,188.23
2022-11-17T20:19:50.161Z,257.33
2022-11-17T20:22:16.822Z,261.30
2022-11-17T20:24:43.339Z,264.00
2022-11-17T20:27:09.695Z,260.92
2022-11-17T20:29:36.286Z,218.75
2022-11-17T20:32:02.645Z,193.30
